createdAt,value
2019-03-28T00:00:53.726Z,103585.59
2019-03-28T00:03:23.446Z,103590.78
2019-03-28T00:05:53.010Z,103584.64
2019-03-28T00:08:22.632Z,103586.44
2019-03-28T00:10:52.126Z,103583.67
2019-03-28T00:13:21.627Z,103585.36
2019-03-28T00:15:51.315Z,103580.33
2019-03-28T00:18:20.932Z,103583.26
2019-03-28T00:20:50.492Z,103583.28
2019-03-28T00:23:24.388Z,103580.59
2019-03-28T00:25:53.956Z,103582.19
2019-03-28T00:28:23.603Z,103577.21
2019-03-28T00:30:53.473Z,103573.62
2019-03-28T00:33:23.027Z,103579.90
2019-03-28T00:35:52.586Z,103575.43
2019-03-28T00:38:22.153Z,103575.20
2019-03-28T00:40:51.722Z,103572.31
2019-03-28T00:43:21.351Z,103573.06
2019-03-28T00:45:50.902Z,103573.36
2019-03-28T00:48:20.448Z,103570.30
2019-03-28T00:50:50.079Z,103574.52
2019-03-28T00:53:19.710Z,103573.34
2019-03-28T00:55:49.216Z,103576.10
2019-03-28T00:58:18.872Z,103573.90
2019-03-28T01:00:48.439Z,103575.36
2019-03-28T01:03:18.061Z,103568.12
2019-03-28T01:05:47.667Z,103576.86
2019-03-28T01:08:17.207Z,103568.30
2019-03-28T01:10:47.261Z,103569.30
2019-03-28T01:13:16.882Z,103568.73
2019-03-28T01:15:46.465Z,103569.75
2019-03-28T01:18:16.109Z,103572.13
2019-03-28T01:20:45.671Z,103565.87
2019-03-28T01:23:15.555Z,103561.91
2019-03-28T01:25:45.193Z,103564.53
2019-03-28T01:28:14.790Z,103564.95
2019-03-28T01:30:44.304Z,103564.35
2019-03-28T01:33:13.916Z,103558.38
2019-03-28T01:35:43.499Z,103555.66
2019-03-28T01:38:13.048Z,103562.48
2019-03-28T01:40:42.546Z,103560.61
2019-03-28T01:43:12.378Z,103555.55
2019-03-28T01:45:41.869Z,103559.66
2019-03-28T01:48:11.488Z,103552.23
2019-03-28T01:50:41.196Z,103548.09
2019-03-28T01:53:10.902Z,103548.27
2019-03-28T01:55:40.516Z,103547.39
2019-03-28T01:58:09.988Z,103546.98
2019-03-28T02:00:39.638Z,103546.50
2019-03-28T02:03:09.155Z,103558.02
2019-03-28T02:05:38.743Z,103558.95
2019-03-28T02:08:08.460Z,103555.73
2019-03-28T02:10:37.985Z,103554.95
2019-03-28T02:13:07.481Z,103558.81
2019-03-28T02:15:37.140Z,103554.89
2019-03-28T02:18:06.762Z,103560.98
2019-03-28T02:20:36.657Z,103565.55
2019-03-28T02:23:06.226Z,103558.70
2019-03-28T02:25:35.782Z,103558.86
2019-03-28T02:28:05.478Z,103557.77
2019-03-28T02:30:35.273Z,103556.64
2019-03-28T02:33:13.613Z,103563.80
2019-03-28T02:35:41.826Z,103562.77
2019-03-28T02:38:11.465Z,103565.81
2019-03-28T02:40:41.086Z,103573.55
2019-03-28T02:43:10.621Z,103564.59
2019-03-28T02:45:40.233Z,103561.23
2019-03-28T02:48:09.883Z,103568.09
2019-03-28T02:50:39.408Z,103568.69
2019-03-28T02:53:09.020Z,103567.14
2019-03-28T02:55:38.672Z,103567.27
2019-03-28T02:58:08.277Z,103570.06
2019-03-28T03:00:37.836Z,103567.61
2019-03-28T03:03:07.440Z,103570.94
2019-03-28T03:05:37.035Z,103572.66
2019-03-28T03:08:07.721Z,103564.94
2019-03-28T03:10:37.551Z,103565.67
2019-03-28T03:13:07.041Z,103569.53
2019-03-28T03:15:36.931Z,103567.34
2019-03-28T03:18:07.781Z,103567.16
2019-03-28T03:20:37.635Z,103570.87
2019-03-28T03:23:07.179Z,103561.97
2019-03-28T03:25:37.370Z,103558.84
2019-03-28T03:28:06.835Z,103563.17
2019-03-28T03:30:36.361Z,103559.39
2019-03-28T03:33:05.968Z,103558.68
2019-03-28T03:35:35.532Z,103565.13
2019-03-28T03:38:05.505Z,103558.57
2019-03-28T03:40:35.428Z,103565.02
2019-03-28T03:43:05.082Z,103562.88
2019-03-28T03:45:35.581Z,103557.91
2019-03-28T03:48:05.502Z,103558.08
2019-03-28T03:50:35.051Z,103573.09
2019-03-28T03:53:04.526Z,103558.43
2019-03-28T03:55:34.477Z,103567.36
2019-03-28T03:58:15.235Z,103561.70
2019-03-28T04:00:37.186Z,103566.39
2019-03-28T04:03:06.791Z,103563.44
2019-03-28T04:05:36.251Z,103571.47
2019-03-28T04:08:05.818Z,103559.70
2019-03-28T04:10:35.308Z,103564.77
2019-03-28T04:13:04.964Z,103562.58
2019-03-28T04:15:34.497Z,103562.05
2019-03-28T04:18:04.092Z,103562.00
2019-03-28T04:20:33.579Z,103561.80
2019-03-28T04:23:03.845Z,103557.69
2019-03-28T04:25:33.712Z,103561.83
2019-03-28T04:28:03.175Z,103556.02
2019-03-28T04:30:32.633Z,103550.53
2019-03-28T04:33:02.133Z,103551.92
2019-03-28T04:35:32.128Z,103563.14
2019-03-28T04:38:01.608Z,103559.98
2019-03-28T04:40:31.085Z,103559.14
2019-03-28T04:43:00.949Z,103557.80
2019-03-28T04:45:30.416Z,103560.08
2019-03-28T04:47:59.886Z,103558.84
2019-03-28T04:50:29.362Z,103559.77
2019-03-28T04:52:58.829Z,103558.87
2019-03-28T04:55:28.317Z,103562.61
2019-03-28T04:57:57.789Z,103564.31
2019-03-28T05:00:27.397Z,103561.98
2019-03-28T05:02:57.564Z,103564.55
2019-03-28T05:05:27.397Z,103564.30
2019-03-28T05:07:56.887Z,103566.60
2019-03-28T05:10:26.365Z,103568.52
2019-03-28T05:12:55.828Z,103569.50
2019-03-28T05:15:25.316Z,103567.71
2019-03-28T05:17:54.784Z,103573.62
2019-03-28T05:20:24.284Z,103570.82
2019-03-28T05:22:54.228Z,103574.35
2019-03-28T05:25:24.305Z,103575.84
2019-03-28T05:27:54.051Z,103581.42
2019-03-28T05:30:23.527Z,103584.97
2019-03-28T05:32:53.011Z,103583.45
2019-03-28T05:35:22.487Z,103585.87
2019-03-28T05:37:51.977Z,103589.26
2019-03-28T05:40:22.893Z,103591.63
2019-03-28T05:42:52.504Z,103595.20
2019-03-28T05:45:22.379Z,103594.52
2019-03-28T05:47:51.850Z,103593.28
2019-03-28T05:50:21.358Z,103591.58
2019-03-28T05:52:50.828Z,103599.68
2019-03-28T05:55:20.382Z,103604.84
2019-03-28T05:57:49.865Z,103608.80
2019-03-28T06:00:19.489Z,103613.70
2019-03-28T06:02:48.973Z,103617.60
2019-03-28T06:05:18.795Z,103613.86
2019-03-28T06:07:48.274Z,103617.27
2019-03-28T06:10:18.218Z,103615.94
2019-03-28T06:12:47.754Z,103622.11
2019-03-28T06:15:17.496Z,103618.14
2019-03-28T06:17:49.062Z,103624.02
2019-03-28T06:20:18.752Z,103626.87
2019-03-28T06:22:48.286Z,103628.24
2019-03-28T06:25:17.758Z,103635.91
2019-03-28T06:27:47.253Z,103634.44
2019-03-28T06:30:17.034Z,103620.99
2019-03-28T06:32:46.619Z,103625.72
2019-03-28T06:35:16.157Z,103631.54
2019-03-28T06:37:45.700Z,103628.43
2019-03-28T06:40:15.262Z,103630.98
2019-03-28T06:42:45.124Z,103639.61
2019-03-28T06:45:14.698Z,103637.01
2019-03-28T06:47:44.161Z,103637.44
2019-03-28T06:50:14.167Z,103638.37
2019-03-28T06:52:43.667Z,103645.45
2019-03-28T06:55:13.296Z,103640.52
2019-03-28T06:57:42.807Z,103640.75
2019-03-28T07:00:13.115Z,103641.42
2019-03-28T07:02:43.422Z,103646.33
2019-03-28T07:05:13.617Z,103638.05
2019-03-28T07:07:43.097Z,103648.84
2019-03-28T07:10:13.690Z,103645.27
2019-03-28T07:12:43.191Z,103645.25
2019-03-28T07:15:13.086Z,103649.97
2019-03-28T07:17:42.639Z,103653.61
2019-03-28T07:20:13.166Z,103649.20
2019-03-28T07:22:45.847Z,103651.83
2019-03-28T07:25:14.570Z,103652.19
2019-03-28T07:27:44.063Z,103644.28
2019-03-28T07:30:16.141Z,103648.50
2019-03-28T07:32:46.089Z,103651.36
2019-03-28T07:35:16.029Z,103651.52
2019-03-28T07:37:45.505Z,103654.92
2019-03-28T07:40:16.344Z,103650.58
2019-03-28T07:42:45.833Z,103656.39
2019-03-28T07:45:15.503Z,103660.52
2019-03-28T07:47:44.995Z,103652.50
2019-03-28T07:50:14.686Z,103658.77
2019-03-28T07:52:44.192Z,103649.84
2019-03-28T07:55:16.282Z,103645.96
2019-03-28T07:57:45.109Z,103650.12
2019-03-28T08:00:15.329Z,103649.66
2019-03-28T08:02:44.796Z,103655.09
2019-03-28T08:05:14.902Z,103648.35
2019-03-28T08:07:45.772Z,103648.38
2019-03-28T08:10:16.514Z,103654.16
2019-03-28T08:12:45.975Z,103648.47
2019-03-28T08:15:16.266Z,103649.61
2019-03-28T08:17:45.821Z,103649.77
2019-03-28T08:20:16.219Z,103648.97
2019-03-28T08:22:45.786Z,103654.46
2019-03-28T08:25:15.727Z,103653.52
2019-03-28T08:27:45.270Z,103650.30
2019-03-28T08:30:19.110Z,103654.75
2019-03-28T08:32:47.693Z,103655.45
2019-03-28T08:35:17.183Z,103654.14
2019-03-28T08:37:47.098Z,103654.80
2019-03-28T08:40:35.573Z,103661.52
2019-03-28T08:43:05.307Z,103667.73
2019-03-28T08:45:35.004Z,103667.48
2019-03-28T08:48:06.266Z,103663.09
2019-03-28T08:50:35.810Z,103669.95
2019-03-28T08:53:06.068Z,103673.02
2019-03-28T08:55:35.571Z,103667.33
2019-03-28T08:58:05.114Z,103667.44
2019-03-28T09:00:50.230Z,103669.17
2019-03-28T09:03:06.424Z,103673.48
2019-03-28T09:05:35.907Z,103666.73
2019-03-28T09:08:05.457Z,103668.36
2019-03-28T09:10:34.916Z,103667.81
2019-03-28T09:13:04.550Z,103671.20
2019-03-28T09:15:43.742Z,103671.00
2019-03-28T09:18:05.955Z,103670.02
2019-03-28T09:20:35.418Z,103666.50
2019-03-28T09:23:04.986Z,103664.05
2019-03-28T09:25:34.509Z,103664.61
2019-03-28T09:28:03.971Z,103672.16
2019-03-28T09:30:48.263Z,103675.35
2019-03-28T09:33:08.888Z,103672.41
2019-03-28T09:35:39.288Z,103670.14
2019-03-28T09:38:09.176Z,103671.36
2019-03-28T09:40:38.719Z,103669.66
2019-03-28T09:43:08.206Z,103668.21
2019-03-28T09:45:37.698Z,103672.78
2019-03-28T09:48:07.671Z,103662.98
2019-03-28T09:50:38.804Z,103669.00
2019-03-28T09:53:08.345Z,103667.66
2019-03-28T09:55:37.823Z,103666.83
2019-03-28T09:58:07.428Z,103673.23
2019-03-28T10:00:37.061Z,103667.92
2019-03-28T10:03:06.607Z,103669.11
2019-03-28T10:05:37.952Z,103669.70
2019-03-28T10:08:07.404Z,103664.25
2019-03-28T10:10:36.887Z,103665.78
2019-03-28T10:13:06.502Z,103659.32
2019-03-28T10:15:37.176Z,103657.92
2019-03-28T10:18:06.864Z,103657.70
2019-03-28T10:20:36.323Z,103651.23
2019-03-28T10:23:05.875Z,103657.13
2019-03-28T10:25:35.349Z,103649.30
2019-03-28T10:28:04.906Z,103650.40
2019-03-28T10:30:43.305Z,103651.78
2019-03-28T10:33:12.777Z,103648.16
2019-03-28T10:35:42.333Z,103644.05
2019-03-28T10:38:11.821Z,103642.80
2019-03-28T10:40:41.300Z,103651.12
2019-03-28T10:43:11.183Z,103655.66
2019-03-28T10:45:40.736Z,103651.96
2019-03-28T10:48:10.235Z,103650.00
2019-03-28T10:50:45.250Z,103648.55
2019-03-28T10:53:10.915Z,103650.05
2019-03-28T10:55:40.543Z,103651.61
2019-03-28T10:58:18.457Z,103648.55
2019-03-28T11:00:41.926Z,103644.14
2019-03-28T11:03:11.535Z,103644.55
2019-03-28T11:05:41.003Z,103639.80
2019-03-28T11:08:10.496Z,103643.09
2019-03-28T11:10:40.015Z,103640.64
2019-03-28T11:13:10.085Z,103643.69
2019-03-28T11:15:39.651Z,103638.38
2019-03-28T11:18:09.119Z,103644.16
2019-03-28T11:20:40.082Z,103643.06
2019-03-28T11:23:09.900Z,103643.58
2019-03-28T11:25:39.514Z,103643.02
2019-03-28T11:28:09.075Z,103638.86
2019-03-28T11:30:38.523Z,103635.82
2019-03-28T11:33:08.247Z,103635.30
2019-03-28T11:35:37.801Z,103633.92
2019-03-28T11:38:10.002Z,103624.50
2019-03-28T11:40:42.750Z,103629.52
2019-03-28T11:43:10.834Z,103630.20
2019-03-28T11:45:59.733Z,103625.25
2019-03-28T11:48:29.228Z,103626.53
2019-03-28T11:50:58.693Z,103623.80
2019-03-28T11:53:28.171Z,103625.84
2019-03-28T11:55:57.655Z,103630.48
2019-03-28T11:58:27.455Z,103625.44
2019-03-28T12:00:56.935Z,103621.64
2019-03-28T12:03:26.412Z,103622.67
2019-03-28T12:05:55.879Z,103615.42
2019-03-28T12:08:25.432Z,103615.86
2019-03-28T12:10:54.904Z,103616.88
2019-03-28T12:13:24.402Z,103613.11
2019-03-28T12:15:54.002Z,103617.03
2019-03-28T12:18:25.226Z,103618.05
2019-03-28T12:20:54.838Z,103608.41
2019-03-28T12:23:24.305Z,103604.91
2019-03-28T12:25:53.785Z,103602.73
2019-03-28T12:28:23.275Z,103599.11
2019-03-28T12:30:52.849Z,103595.94
2019-03-28T12:33:22.317Z,103594.41
2019-03-28T12:35:52.428Z,103593.38
2019-03-28T12:38:22.260Z,103588.66
2019-03-28T12:40:52.746Z,103585.95
2019-03-28T12:43:22.581Z,103575.72
2019-03-28T12:45:52.651Z,103576.81
2019-03-28T12:48:22.232Z,103584.62
2019-03-28T12:50:58.708Z,103583.17
2019-03-28T12:53:22.931Z,103581.36
2019-03-28T12:55:52.410Z,103585.20
2019-03-28T12:58:22.433Z,103575.67
2019-03-28T13:00:52.049Z,103569.83
2019-03-28T13:03:21.536Z,103568.16
2019-03-28T13:05:51.011Z,103563.84
2019-03-28T13:08:20.572Z,103567.38
2019-03-28T13:10:50.036Z,103556.75
2019-03-28T13:13:19.500Z,103556.44
2019-03-28T13:15:48.992Z,103554.38
2019-03-28T13:18:18.468Z,103544.42
2019-03-28T13:20:47.972Z,103543.59
2019-03-28T13:23:17.440Z,103535.59
2019-03-28T13:25:46.956Z,103537.28
2019-03-28T13:28:16.409Z,103536.55
2019-03-28T13:30:45.859Z,103530.41
2019-03-28T13:33:15.349Z,103528.78
2019-03-28T13:35:44.766Z,103526.05
2019-03-28T13:38:14.245Z,103528.70
2019-03-28T13:40:43.758Z,103527.82
2019-03-28T13:43:13.638Z,103528.39
2019-03-28T13:45:47.261Z,103525.25
2019-03-28T13:48:16.712Z,103531.71
2019-03-28T13:50:46.160Z,103517.98
2019-03-28T13:53:15.575Z,103515.73
2019-03-28T13:55:44.983Z,103514.35
2019-03-28T13:58:14.708Z,103506.86
2019-03-28T14:00:44.160Z,103513.31
2019-03-28T14:03:13.621Z,103509.71
2019-03-28T14:05:43.042Z,103510.38
2019-03-28T14:08:12.838Z,103510.91
2019-03-28T14:10:42.281Z,103505.14
2019-03-28T14:13:11.714Z,103500.41
2019-03-28T14:15:41.218Z,103501.44
2019-03-28T14:18:10.652Z,103503.19
2019-03-28T14:20:40.048Z,103501.99
2019-03-28T14:23:09.492Z,103502.34
2019-03-28T14:25:38.988Z,103493.69
2019-03-28T14:28:08.425Z,103495.62
2019-03-28T14:30:39.543Z,103493.42
2019-03-28T14:33:11.563Z,103494.20
2019-03-28T14:35:40.155Z,103487.67
2019-03-28T14:38:09.575Z,103485.92
2019-03-28T14:40:39.075Z,103485.17
2019-03-28T14:43:10.760Z,103479.55
2019-03-28T14:45:39.684Z,103479.87
2019-03-28T14:48:09.094Z,103483.95
2019-03-28T14:50:40.182Z,103480.23
2019-03-28T14:53:09.709Z,103480.50
2019-03-28T14:55:39.280Z,103478.66
2019-03-28T14:58:08.965Z,103481.80
2019-03-28T15:00:52.450Z,103480.41
2019-03-28T15:03:27.195Z,103480.71
2019-03-28T15:05:53.633Z,103486.75
2019-03-28T15:08:23.135Z,103484.58
2019-03-28T15:10:52.929Z,103487.73
2019-03-28T15:13:22.709Z,103478.50
2019-03-28T15:15:52.120Z,103474.00
2019-03-28T15:18:21.562Z,103475.36
2019-03-28T15:20:50.983Z,103472.50
2019-03-28T15:23:20.738Z,103468.77
2019-03-28T15:25:50.166Z,103462.59
2019-03-28T15:28:20.012Z,103459.34
2019-03-28T15:30:49.664Z,103463.61
2019-03-28T15:33:19.097Z,103461.02
2019-03-28T15:35:48.519Z,103456.98
2019-03-28T15:38:18.350Z,103451.83
2019-03-28T15:40:47.870Z,103450.24
2019-03-28T15:43:17.324Z,103437.34
2019-03-28T15:45:46.786Z,103439.42
2019-03-28T15:48:16.291Z,103433.16
2019-03-28T15:50:45.867Z,103435.31
2019-03-28T15:53:15.326Z,103437.56
2019-03-28T15:55:44.758Z,103428.70
2019-03-28T15:58:23.028Z,103426.60
2019-03-28T16:00:45.697Z,103435.39
2019-03-28T16:03:15.108Z,103430.89
2019-03-28T16:05:57.164Z,103431.88
2019-03-28T16:08:15.771Z,103429.41
2019-03-28T16:10:45.244Z,103435.34
2019-03-28T16:13:14.706Z,103425.38
2019-03-28T16:15:44.488Z,103424.67
2019-03-28T16:18:14.027Z,103427.81
2019-03-28T16:20:43.440Z,103423.70
2019-03-28T16:23:12.879Z,103425.17
2019-03-28T16:25:42.303Z,103429.91
2019-03-28T16:28:11.790Z,103421.91
2019-03-28T16:30:41.367Z,103417.52
2019-03-28T16:33:10.884Z,103417.61
2019-03-28T16:35:40.395Z,103414.41
2019-03-28T16:38:09.906Z,103415.17
2019-03-28T16:40:39.335Z,103414.61
2019-03-28T16:43:08.780Z,103414.84
2019-03-28T16:45:38.211Z,103408.69
2019-03-28T16:48:07.788Z,103413.69
2019-03-28T16:50:37.350Z,103410.71
2019-03-28T16:53:06.788Z,103404.58
2019-03-28T16:55:36.382Z,103401.59
2019-03-28T16:58:05.909Z,103409.13
2019-03-28T17:00:37.557Z,103405.89
2019-03-28T17:03:07.368Z,103409.31
2019-03-28T17:05:36.972Z,103406.39
2019-03-28T17:08:06.580Z,103399.87
2019-03-28T17:10:49.293Z,103402.67
2019-03-28T17:13:18.732Z,103401.16
2019-03-28T17:15:48.312Z,103399.46
2019-03-28T17:18:18.788Z,103402.41
2019-03-28T17:20:48.661Z,103406.78
2019-03-28T17:23:18.175Z,103407.31
2019-03-28T17:25:47.747Z,103401.92
2019-03-28T17:28:17.321Z,103402.66
2019-03-28T17:30:46.913Z,103401.33
2019-03-28T17:33:17.884Z,103404.72
2019-03-28T17:35:47.766Z,103406.25
2019-03-28T17:38:17.674Z,103414.88
2019-03-28T17:40:47.168Z,103403.00
2019-03-28T17:43:16.738Z,103404.93
2019-03-28T17:45:46.440Z,103409.34
2019-03-28T17:48:16.166Z,103405.59
2019-03-28T17:50:46.062Z,103407.23
2019-03-28T17:53:15.898Z,103412.65
2019-03-28T17:55:46.202Z,103410.44
2019-03-28T17:58:16.270Z,103413.98
2019-03-28T18:00:46.800Z,103417.72
2019-03-28T18:03:30.615Z,103419.14
2019-03-28T18:05:58.010Z,103418.61
2019-03-28T18:08:21.768Z,103423.75
2019-03-28T18:10:51.184Z,103425.34
2019-03-28T18:13:20.683Z,103425.20
2019-03-28T18:15:50.523Z,103424.30
2019-03-28T18:18:19.958Z,103423.71
2019-03-28T18:20:49.532Z,103425.40
2019-03-28T18:23:18.984Z,103426.17
2019-03-28T18:25:48.499Z,103434.94
2019-03-28T18:28:17.924Z,103434.48
2019-03-28T18:30:47.569Z,103432.03
2019-03-28T18:33:17.011Z,103438.45
2019-03-28T18:35:46.585Z,103438.85
2019-03-28T18:38:16.056Z,103447.11
2019-03-28T18:40:46.722Z,103440.55
2019-03-28T18:43:16.490Z,103448.09
2019-03-28T18:45:47.631Z,103448.58
2019-03-28T18:48:29.207Z,103447.23
2019-03-28T18:50:51.429Z,103452.80
2019-03-28T18:53:20.836Z,103449.94
2019-03-28T18:55:50.237Z,103450.27
2019-03-28T18:58:19.643Z,103455.83
2019-03-28T19:00:49.069Z,103458.71
2019-03-28T19:03:20.958Z,103464.09
2019-03-28T19:05:50.367Z,103461.27
2019-03-28T19:08:20.082Z,103459.63
2019-03-28T19:10:51.047Z,103463.47
2019-03-28T19:13:20.590Z,103468.01
2019-03-28T19:15:50.220Z,103464.58
2019-03-28T19:18:21.649Z,103462.05
2019-03-28T19:20:51.070Z,103457.89
2019-03-28T19:23:20.499Z,103465.35
2019-03-28T19:25:50.024Z,103459.10
2019-03-28T19:28:28.765Z,103457.39
2019-03-28T19:30:50.553Z,103469.08
2019-03-28T19:33:20.413Z,103472.47
2019-03-28T19:35:51.266Z,103470.92
2019-03-28T19:38:20.778Z,103469.70
2019-03-28T19:40:50.556Z,103466.33
2019-03-28T19:43:22.083Z,103467.37
2019-03-28T19:45:51.255Z,103459.85
2019-03-28T19:48:20.760Z,103465.27
2019-03-28T19:50:50.157Z,103466.30
2019-03-28T19:53:19.604Z,103461.63
2019-03-28T19:55:49.052Z,103466.67
2019-03-28T19:58:18.518Z,103461.64
2019-03-28T20:00:47.997Z,103462.31
2019-03-28T20:03:17.410Z,103456.11
2019-03-28T20:05:48.439Z,103453.20
2019-03-28T20:08:18.292Z,103462.80
2019-03-28T20:10:48.254Z,103455.73
2019-03-28T20:13:17.663Z,103460.78
2019-03-28T20:15:47.110Z,103459.19
2019-03-28T20:18:16.544Z,103459.02
2019-03-28T20:20:46.301Z,103465.91
2019-03-28T20:23:16.293Z,103467.84
2019-03-28T20:25:45.675Z,103470.03
2019-03-28T20:28:16.266Z,103464.55
2019-03-28T20:30:46.428Z,103468.33
2019-03-28T20:33:15.986Z,103469.17
2019-03-28T20:35:45.394Z,103472.47
2019-03-28T20:38:14.870Z,103477.86
2019-03-28T20:40:44.315Z,103473.27
2019-03-28T20:43:13.715Z,103478.58
2019-03-28T20:45:43.134Z,103476.75
2019-03-28T20:48:12.537Z,103476.88
2019-03-28T20:50:42.031Z,103483.17
2019-03-28T20:53:12.017Z,103479.13
2019-03-28T20:55:41.818Z,103477.50
2019-03-28T20:58:11.246Z,103477.48
2019-03-28T21:00:44.253Z,103477.77
2019-03-28T21:03:15.347Z,103476.63
2019-03-28T21:05:45.611Z,103480.87
2019-03-28T21:08:15.454Z,103475.02
2019-03-28T21:10:44.932Z,103479.84
2019-03-28T21:13:14.408Z,103473.49
2019-03-28T21:15:43.985Z,103470.37
2019-03-28T21:18:13.395Z,103471.59
2019-03-28T21:20:42.785Z,103479.05
2019-03-28T21:23:12.292Z,103475.82
2019-03-28T21:25:42.684Z,103477.87
2019-03-28T21:28:13.852Z,103474.18
2019-03-28T21:30:47.493Z,103482.88
2019-03-28T21:33:15.232Z,103481.03
2019-03-28T21:35:44.953Z,103479.86
2019-03-28T21:38:14.436Z,103479.92
2019-03-28T21:40:44.461Z,103486.02
2019-03-28T21:43:13.860Z,103486.19
2019-03-28T21:45:43.556Z,103480.75
2019-03-28T21:48:13.304Z,103479.44
2019-03-28T21:50:43.061Z,103485.22
2019-03-28T21:53:12.488Z,103475.38
2019-03-28T21:55:54.478Z,103478.13
2019-03-28T21:58:13.117Z,103475.05
2019-03-28T22:00:42.852Z,103482.73
2019-03-28T22:03:16.876Z,103472.47
2019-03-28T22:05:46.513Z,103480.48
2019-03-28T22:08:15.937Z,103480.46
2019-03-28T22:10:45.453Z,103479.36
2019-03-28T22:13:15.010Z,103480.63
2019-03-28T22:15:44.842Z,103482.59
2019-03-28T22:18:14.345Z,103481.27
2019-03-28T22:20:43.858Z,103482.20
2019-03-28T22:23:13.831Z,103477.72
2019-03-28T22:25:43.365Z,103480.98
2019-03-28T22:28:12.805Z,103482.88
2019-03-28T22:30:42.210Z,103483.00
2019-03-28T22:33:11.699Z,103480.95
2019-03-28T22:35:41.602Z,103485.04
2019-03-28T22:38:11.056Z,103481.55
2019-03-28T22:40:43.703Z,103483.66
2019-03-28T22:43:11.728Z,103480.13
2019-03-28T22:45:41.136Z,103484.56
2019-03-28T22:48:12.362Z,103473.70
2019-03-28T22:50:41.744Z,103479.24
2019-03-28T22:53:11.161Z,103481.08
2019-03-28T22:55:40.586Z,103479.55
2019-03-28T22:58:09.996Z,103477.13
2019-03-28T23:00:44.795Z,103479.55
2019-03-28T23:03:15.320Z,103482.52
2019-03-28T23:05:44.956Z,103475.47
2019-03-28T23:08:14.368Z,103474.50
2019-03-28T23:10:43.825Z,103472.42
2019-03-28T23:13:13.306Z,103479.28
2019-03-28T23:15:42.805Z,103476.38
2019-03-28T23:18:13.479Z,103469.39
2019-03-28T23:20:43.187Z,103466.58
2019-03-28T23:23:12.711Z,103468.70
2019-03-28T23:25:42.459Z,103467.81
2019-03-28T23:28:11.879Z,103461.64
2019-03-28T23:30:41.316Z,103462.52
2019-03-28T23:33:10.791Z,103461.85
2019-03-28T23:35:41.002Z,103460.78
2019-03-28T23:38:10.673Z,103465.91
2019-03-28T23:40:40.091Z,103449.77
2019-03-28T23:43:09.945Z,103451.41
2019-03-28T23:45:39.674Z,103453.77
2019-03-28T23:48:09.196Z,103458.87
2019-03-28T23:50:38.657Z,103452.83
2019-03-28T23:53:08.855Z,103452.28
2019-03-28T23:55:38.497Z,103453.55
2019-03-28T23:58:07.973Z,103450.33
